sensor_id;sensor_type;location;lat;lon;timestamp;temperature;humidity
21772;DHT22;11047;47.904;8.110;2023-04-06T00:01:11;-1.80;99.90
21772;DHT22;11047;47.904;8.110;2023-04-06T00:03:38;-1.90;99.90
21772;DHT22;11047;47.904;8.110;2023-04-06T00:06:06;-2.00;99.90
21772;DHT22;11047;47.904;8.110;2023-04-06T00:08:33;-2.00;99.90
21772;DHT22;11047;47.904;8.110;2023-04-06T00:11:00;-1.90;99.90
21772;DHT22;11047;47.904;8.110;2023-04-06T00:13:27;-1.90;99.90
21772;DHT22;11047;47.904;8.110;2023-04-06T00:15:54;-1.80;99.90
21772;DHT22;11047;47.904;8.110;2023-04-06T00:18:21;-1.80;99.90
21772;DHT22;11047;47.904;8.110;2023-04-06T00:20:48;-1.90;99.90
21772;DHT22;11047;47.904;8.110;2023-04-06T00:23:17;-1.90;99.90
21772;DHT22;11047;47.904;8.110;2023-04-06T00:25:44;-1.90;99.90
21772;DHT22;11047;47.904;8.110;2023-04-06T00:28:11;-1.90;99.90
21772;DHT22;11047;47.904;8.110;2023-04-06T00:30:39;-1.00;99.90
21772;DHT22;11047;47.904;8.110;2023-04-06T00:33:06;-2.00;99.90
21772;DHT22;11047;47.904;8.110;2023-04-06T00:35:33;-2.10;99.90
21772;DHT22;11047;47.904;8.110;2023-04-06T00:38:00;-2.10;99.90
21772;DHT22;11047;47.904;8.110;2023-04-06T00:40:28;-2.10;99.90
21772;DHT22;11047;47.904;8.110;2023-04-06T00:42:56;-2.10;99.90
21772;DHT22;11047;47.904;8.110;2023-04-06T00:45:23;-2.10;99.90
21772;DHT22;11047;47.904;8.110;2023-04-06T00:47:50;-2.10;99.90
21772;DHT22;11047;47.904;8.110;2023-04-06T00:50:17;-2.10;99.90
21772;DHT22;11047;47.904;8.110;2023-04-06T00:52:45;-2.10;99.90
21772;DHT22;11047;47.904;8.110;2023-04-06T00:55:11;-2.20;99.90
21772;DHT22;11047;47.904;8.110;2023-04-06T00:57:40;-1.90;99.90
21772;DHT22;11047;47.904;8.110;2023-04-06T01:00:07;-2.10;99.90
21772;DHT22;11047;47.904;8.110;2023-04-06T01:02:35;-2.30;99.90
21772;DHT22;11047;47.904;8.110;2023-04-06T01:05:02;-2.40;99.90
21772;DHT22;11047;47.904;8.110;2023-04-06T01:07:29;-2.30;99.90
21772;DHT22;11047;47.904;8.110;2023-04-06T01:09:56;-2.40;99.90
21772;DHT22;11047;47.904;8.110;2023-04-06T01:12:24;-2.30;99.90
21772;DHT22;11047;47.904;8.110;2023-04-06T01:14:52;-2.30;99.90
21772;DHT22;11047;47.904;8.110;2023-04-06T01:17:19;-2.30;99.90
21772;DHT22;11047;47.904;8.110;2023-04-06T01:19:46;-2.30;99.90
21772;DHT22;11047;47.904;8.110;2023-04-06T01:22:16;-2.30;99.90
21772;DHT22;11047;47.904;8.110;2023-04-06T01:24:44;-2.40;99.90
21772;DHT22;11047;47.904;8.110;2023-04-06T01:27:11;-2.40;99.90
21772;DHT22;11047;47.904;8.110;2023-04-06T01:29:37;-2.50;99.90
21772;DHT22;11047;47.904;8.110;2023-04-06T01:32:06;-2.60;99.90
21772;DHT22;11047;47.904;8.110;2023-04-06T01:34:33;-2.70;99.90
21772;DHT22;11047;47.904;8.110;2023-04-06T01:37:00;-2.60;99.90
21772;DHT22;11047;47.904;8.110;2023-04-06T01:39:29;-2.60;99.90
21772;DHT22;11047;47.904;8.110;2023-04-06T01:41:56;-2.60;99.90
21772;DHT22;11047;47.904;8.110;2023-04-06T01:44:23;-2.50;99.90
21772;DHT22;11047;47.904;8.110;2023-04-06T01:46:50;-2.50;99.90
21772;DHT22;11047;47.904;8.110;2023-04-06T01:49:17;-2.60;99.90
21772;DHT22;11047;47.904;8.110;2023-04-06T01:51:44;-2.70;99.90
21772;DHT22;11047;47.904;8.110;2023-04-06T01:54:11;-2.70;99.90
21772;DHT22;11047;47.904;8.110;2023-04-06T01:56:39;-2.70;99.90
21772;DHT22;11047;47.904;8.110;2023-04-06T01:59:06;-2.70;99.90
21772;DHT22;11047;47.904;8.110;2023-04-06T02:01:33;-2.70;99.90
21772;DHT22;11047;47.904;8.110;2023-04-06T02:04:00;-2.70;99.90
21772;DHT22;11047;47.904;8.110;2023-04-06T02:06:27;-2.80;99.90
21772;DHT22;11047;47.904;8.110;2023-04-06T02:08:54;-2.80;99.90
21772;DHT22;11047;47.904;8.110;2023-04-06T02:11:20;-2.90;99.90
21772;DHT22;11047;47.904;8.110;2023-04-06T02:13:49;-2.80;99.90
21772;DHT22;11047;47.904;8.110;2023-04-06T02:16:15;-2.80;99.90
21772;DHT22;11047;47.904;8.110;2023-04-06T02:18:42;-2.90;99.90
21772;DHT22;11047;47.904;8.110;2023-04-06T02:21:09;-2.90;99.90
21772;DHT22;11047;47.904;8.110;2023-04-06T02:23:37;-2.90;99.90
21772;DHT22;11047;47.904;8.110;2023-04-06T02:26:03;-3.00;99.90
21772;DHT22;11047;47.904;8.110;2023-04-06T02:28:30;-3.10;99.90
21772;DHT22;11047;47.904;8.110;2023-04-06T02:30:59;-3.10;99.90
21772;DHT22;11047;47.904;8.110;2023-04-06T02:33:25;-3.00;99.90
21772;DHT22;11047;47.904;8.110;2023-04-06T02:35:52;-3.10;99.90
21772;DHT22;11047;47.904;8.110;2023-04-06T02:38:19;-3.10;99.90
21772;DHT22;11047;47.904;8.110;2023-04-06T02:40:46;-3.00;99.90
21772;DHT22;11047;47.904;8.110;2023-04-06T02:43:13;-3.00;99.90
21772;DHT22;11047;47.904;8.110;2023-04-06T02:45:40;-3.00;99.90
21772;DHT22;11047;47.904;8.110;2023-04-06T02:48:09;-2.40;99.90
21772;DHT22;11047;47.904;8.110;2023-04-06T02:50:35;-3.00;99.90
21772;DHT22;11047;47.904;8.110;2023-04-06T02:53:02;-3.10;99.90
21772;DHT22;11047;47.904;8.110;2023-04-06T02:55:32;-3.10;99.90
21772;DHT22;11047;47.904;8.110;2023-04-06T02:57:59;-3.20;99.90
21772;DHT22;11047;47.904;8.110;2023-04-06T03:00:26;-3.00;99.90
21772;DHT22;11047;47.904;8.110;2023-04-06T03:02:52;-3.30;99.90
21772;DHT22;11047;47.904;8.110;2023-04-06T03:05:21;-3.20;99.90
21772;DHT22;11047;47.904;8.110;2023-04-06T03:07:48;-3.20;99.90
21772;DHT22;11047;47.904;8.110;2023-04-06T03:10:15;-3.30;99.90
21772;DHT22;11047;47.904;8.110;2023-04-06T03:12:42;-3.30;99.90
21772;DHT22;11047;47.904;8.110;2023-04-06T03:15:09;-3.30;99.90
21772;DHT22;11047;47.904;8.110;2023-04-06T03:17:37;-3.40;99.90
21772;DHT22;11047;47.904;8.110;2023-04-06T03:20:04;-3.40;99.90
21772;DHT22;11047;47.904;8.110;2023-04-06T03:22:33;-3.30;99.90
21772;DHT22;11047;47.904;8.110;2023-04-06T03:24:59;-3.30;99.90
21772;DHT22;11047;47.904;8.110;2023-04-06T03:27:26;-2.40;99.90
21772;DHT22;11047;47.904;8.110;2023-04-06T03:29:53;-3.40;99.90
21772;DHT22;11047;47.904;8.110;2023-04-06T03:32:20;-3.40;99.90
21772;DHT22;11047;47.904;8.110;2023-04-06T03:34:48;-3.50;99.90
21772;DHT22;11047;47.904;8.110;2023-04-06T03:37:14;-3.40;99.90
21772;DHT22;11047;47.904;8.110;2023-04-06T03:39:43;-3.40;99.90
21772;DHT22;11047;47.904;8.110;2023-04-06T03:42:10;-3.40;99.90
21772;DHT22;11047;47.904;8.110;2023-04-06T03:44:36;-3.40;99.90
21772;DHT22;11047;47.904;8.110;2023-04-06T03:47:03;-3.40;99.90
21772;DHT22;11047;47.904;8.110;2023-04-06T03:49:30;-3.50;99.90
21772;DHT22;11047;47.904;8.110;2023-04-06T03:51:57;-3.50;99.90
21772;DHT22;11047;47.904;8.110;2023-04-06T03:54:24;-3.50;99.90
21772;DHT22;11047;47.904;8.110;2023-04-06T03:56:52;-3.60;99.90
21772;DHT22;11047;47.904;8.110;2023-04-06T03:59:19;-3.50;99.90
21772;DHT22;11047;47.904;8.110;2023-04-06T04:01:46;-3.60;99.90
21772;DHT22;11047;47.904;8.110;2023-04-06T04:04:13;-3.60;99.90
21772;DHT22;11047;47.904;8.110;2023-04-06T04:06:40;-3.60;99.90
21772;DHT22;11047;47.904;8.110;2023-04-06T04:09:06;-3.60;99.90
21772;DHT22;11047;47.904;8.110;2023-04-06T04:11:33;-3.60;99.90
21772;DHT22;11047;47.904;8.110;2023-04-06T04:14:01;-3.60;99.90
21772;DHT22;11047;47.904;8.110;2023-04-06T04:16:29;-3.70;99.90
21772;DHT22;11047;47.904;8.110;2023-04-06T04:18:55;-3.70;99.90
21772;DHT22;11047;47.904;8.110;2023-04-06T04:21:23;-3.70;99.90
21772;DHT22;11047;47.904;8.110;2023-04-06T04:23:51;-3.80;99.90
21772;DHT22;11047;47.904;8.110;2023-04-06T04:26:18;-3.70;99.90
21772;DHT22;11047;47.904;8.110;2023-04-06T04:28:45;-3.70;99.90
21772;DHT22;11047;47.904;8.110;2023-04-06T04:31:13;-3.70;99.90
21772;DHT22;11047;47.904;8.110;2023-04-06T04:33:43;-3.70;99.90
21772;DHT22;11047;47.904;8.110;2023-04-06T04:36:10;-3.80;99.90
21772;DHT22;11047;47.904;8.110;2023-04-06T04:38:37;-3.80;99.90
21772;DHT22;11047;47.904;8.110;2023-04-06T04:41:04;-3.80;99.90
21772;DHT22;11047;47.904;8.110;2023-04-06T04:43:31;-3.80;99.90
21772;DHT22;11047;47.904;8.110;2023-04-06T04:45:57;-3.70;99.90
21772;DHT22;11047;47.904;8.110;2023-04-06T04:48:26;-3.70;99.90
21772;DHT22;11047;47.904;8.110;2023-04-06T04:50:53;-3.70;99.90
21772;DHT22;11047;47.904;8.110;2023-04-06T04:53:20;-3.80;99.90
21772;DHT22;11047;47.904;8.110;2023-04-06T04:55:47;-3.80;99.90
21772;DHT22;11047;47.904;8.110;2023-04-06T04:58:14;-3.90;99.90
21772;DHT22;11047;47.904;8.110;2023-04-06T05:00:42;-3.80;99.90
21772;DHT22;11047;47.904;8.110;2023-04-06T05:03:09;-3.80;99.90
21772;DHT22;11047;47.904;8.110;2023-04-06T05:05:39;-3.80;99.90
21772;DHT22;11047;47.904;8.110;2023-04-06T05:08:05;-3.80;99.90
21772;DHT22;11047;47.904;8.110;2023-04-06T05:10:32;-3.80;99.90
21772;DHT22;11047;47.904;8.110;2023-04-06T05:13:03;-3.80;99.90
21772;DHT22;11047;47.904;8.110;2023-04-06T05:15:34;-3.80;99.90
21772;DHT22;11047;47.904;8.110;2023-04-06T05:18:03;-3.70;99.90
21772;DHT22;11047;47.904;8.110;2023-04-06T05:20:30;-3.70;99.90
21772;DHT22;11047;47.904;8.110;2023-04-06T05:22:58;-3.60;99.90
21772;DHT22;11047;47.904;8.110;2023-04-06T05:25:25;-3.60;99.90
21772;DHT22;11047;47.904;8.110;2023-04-06T05:27:52;-3.60;99.90
21772;DHT22;11047;47.904;8.110;2023-04-06T05:30:20;-3.70;99.90
21772;DHT22;11047;47.904;8.110;2023-04-06T05:32:47;-3.70;99.90
21772;DHT22;11047;47.904;8.110;2023-04-06T05:35:14;-3.70;99.90
21772;DHT22;11047;47.904;8.110;2023-04-06T05:37:41;-3.60;99.90
21772;DHT22;11047;47.904;8.110;2023-04-06T05:40:09;-3.60;99.90
21772;DHT22;11047;47.904;8.110;2023-04-06T05:42:37;-3.50;99.90
21772;DHT22;11047;47.904;8.110;2023-04-06T05:45:05;-3.50;99.90
21772;DHT22;11047;47.904;8.110;2023-04-06T05:47:32;-3.50;99.90
21772;DHT22;11047;47.904;8.110;2023-04-06T05:49:59;-3.40;99.90
21772;DHT22;11047;47.904;8.110;2023-04-06T05:52:26;-3.30;99.90
21772;DHT22;11047;47.904;8.110;2023-04-06T05:54:54;-3.30;99.90
21772;DHT22;11047;47.904;8.110;2023-04-06T05:57:22;-3.20;99.90
21772;DHT22;11047;47.904;8.110;2023-04-06T05:59:49;-3.20;99.90
21772;DHT22;11047;47.904;8.110;2023-04-06T06:02:16;-3.10;99.90
21772;DHT22;11047;47.904;8.110;2023-04-06T06:04:43;-3.10;99.90
21772;DHT22;11047;47.904;8.110;2023-04-06T06:07:09;-3.00;99.90
21772;DHT22;11047;47.904;8.110;2023-04-06T06:09:36;-3.00;99.90
21772;DHT22;11047;47.904;8.110;2023-04-06T06:12:04;-2.90;99.90
21772;DHT22;11047;47.904;8.110;2023-04-06T06:14:32;-2.90;99.90
21772;DHT22;11047;47.904;8.110;2023-04-06T06:16:59;-2.80;99.90
21772;DHT22;11047;47.904;8.110;2023-04-06T06:19:25;-2.80;99.90
21772;DHT22;11047;47.904;8.110;2023-04-06T06:21:52;-2.80;99.90
21772;DHT22;11047;47.904;8.110;2023-04-06T06:24:19;-2.70;99.90
21772;DHT22;11047;47.904;8.110;2023-04-06T06:26:46;-2.60;99.90
21772;DHT22;11047;47.904;8.110;2023-04-06T06:29:14;-2.60;99.90
21772;DHT22;11047;47.904;8.110;2023-04-06T06:31:42;-2.50;99.90
21772;DHT22;11047;47.904;8.110;2023-04-06T06:34:09;-2.40;99.90
21772;DHT22;11047;47.904;8.110;2023-04-06T06:36:38;-2.30;99.90
21772;DHT22;11047;47.904;8.110;2023-04-06T06:39:05;-2.20;99.90
21772;DHT22;11047;47.904;8.110;2023-04-06T06:41:32;-2.10;99.90
21772;DHT22;11047;47.904;8.110;2023-04-06T06:43:59;-2.10;99.90
21772;DHT22;11047;47.904;8.110;2023-04-06T06:46:26;-2.00;99.90
21772;DHT22;11047;47.904;8.110;2023-04-06T06:48:54;-1.90;99.90
21772;DHT22;11047;47.904;8.110;2023-04-06T06:51:21;-1.80;99.90
21772;DHT22;11047;47.904;8.110;2023-04-06T06:53:48;-1.70;99.90
21772;DHT22;11047;47.904;8.110;2023-04-06T06:56:15;-1.60;99.90
21772;DHT22;11047;47.904;8.110;2023-04-06T06:58:42;-1.50;99.90
21772;DHT22;11047;47.904;8.110;2023-04-06T07:01:09;-1.40;99.90
21772;DHT22;11047;47.904;8.110;2023-04-06T07:03:36;-1.30;99.90
21772;DHT22;11047;47.904;8.110;2023-04-06T07:06:04;-0.70;99.90
21772;DHT22;11047;47.904;8.110;2023-04-06T07:08:31;0.10;99.90
21772;DHT22;11047;47.904;8.110;2023-04-06T07:10:58;0.80;99.90
21772;DHT22;11047;47.904;8.110;2023-04-06T07:13:25;0.20;99.90
21772;DHT22;11047;47.904;8.110;2023-04-06T07:15:53;0.10;99.90
21772;DHT22;11047;47.904;8.110;2023-04-06T07:18:20;0.00;99.90
21772;DHT22;11047;47.904;8.110;2023-04-06T07:20:47;-0.10;99.90
21772;DHT22;11047;47.904;8.110;2023-04-06T07:23:15;0.00;99.90
21772;DHT22;11047;47.904;8.110;2023-04-06T07:25:42;0.10;99.90
21772;DHT22;11047;47.904;8.110;2023-04-06T07:28:09;0.50;99.90
21772;DHT22;11047;47.904;8.110;2023-04-06T07:30:37;0.80;99.90
21772;DHT22;11047;47.904;8.110;2023-04-06T07:33:04;1.30;99.90
21772;DHT22;11047;47.904;8.110;2023-04-06T07:35:31;1.60;99.90
21772;DHT22;11047;47.904;8.110;2023-04-06T07:37:58;1.80;99.90
21772;DHT22;11047;47.904;8.110;2023-04-06T07:40:26;2.60;99.90
21772;DHT22;11047;47.904;8.110;2023-04-06T07:42:53;3.60;99.90
21772;DHT22;11047;47.904;8.110;2023-04-06T07:45:20;5.10;99.90
21772;DHT22;11047;47.904;8.110;2023-04-06T07:47:47;5.90;99.90
21772;DHT22;11047;47.904;8.110;2023-04-06T07:50:14;6.80;99.90
21772;DHT22;11047;47.904;8.110;2023-04-06T07:52:41;7.80;99.90
21772;DHT22;11047;47.904;8.110;2023-04-06T07:55:08;7.80;99.90
21772;DHT22;11047;47.904;8.110;2023-04-06T07:57:36;7.40;99.90
21772;DHT22;11047;47.904;8.110;2023-04-06T08:00:04;7.10;99.90
21772;DHT22;11047;47.904;8.110;2023-04-06T08:02:32;9.10;99.90
21772;DHT22;11047;47.904;8.110;2023-04-06T08:04:58;10.40;99.90
21772;DHT22;11047;47.904;8.110;2023-04-06T08:07:25;10.70;99.90
21772;DHT22;11047;47.904;8.110;2023-04-06T08:09:52;10.10;99.90
21772;DHT22;11047;47.904;8.110;2023-04-06T08:12:19;9.30;99.90
21772;DHT22;11047;47.904;8.110;2023-04-06T08:14:47;9.80;99.90
21772;DHT22;11047;47.904;8.110;2023-04-06T08:17:14;12.70;99.90
21772;DHT22;11047;47.904;8.110;2023-04-06T08:19:42;13.90;99.90
21772;DHT22;11047;47.904;8.110;2023-04-06T08:22:09;15.80;99.80
21772;DHT22;11047;47.904;8.110;2023-04-06T08:24:36;16.10;99.50
21772;DHT22;11047;47.904;8.110;2023-04-06T08:27:03;14.00;99.90
21772;DHT22;11047;47.904;8.110;2023-04-06T08:29:30;13.20;99.90
21772;DHT22;11047;47.904;8.110;2023-04-06T08:31:58;12.10;99.90
21772;DHT22;11047;47.904;8.110;2023-04-06T08:34:25;10.90;99.90
21772;DHT22;11047;47.904;8.110;2023-04-06T08:36:52;10.80;99.90
21772;DHT22;11047;47.904;8.110;2023-04-06T08:39:19;10.60;99.90
21772;DHT22;11047;47.904;8.110;2023-04-06T08:41:51;10.50;99.90
21772;DHT22;11047;47.904;8.110;2023-04-06T08:44:18;9.80;99.90
21772;DHT22;11047;47.904;8.110;2023-04-06T08:46:45;9.80;99.90
21772;DHT22;11047;47.904;8.110;2023-04-06T08:49:14;10.10;99.90
21772;DHT22;11047;47.904;8.110;2023-04-06T08:51:42;10.10;99.90
21772;DHT22;11047;47.904;8.110;2023-04-06T08:54:09;9.70;99.90
21772;DHT22;11047;47.904;8.110;2023-04-06T08:56:38;9.10;99.90
21772;DHT22;11047;47.904;8.110;2023-04-06T08:59:06;9.10;99.90
21772;DHT22;11047;47.904;8.110;2023-04-06T09:01:38;9.30;99.90
21772;DHT22;11047;47.904;8.110;2023-04-06T09:04:07;9.60;99.90
21772;DHT22;11047;47.904;8.110;2023-04-06T09:06:37;9.80;99.90
21772;DHT22;11047;47.904;8.110;2023-04-06T09:09:06;9.70;99.90
21772;DHT22;11047;47.904;8.110;2023-04-06T09:11:46;10.00;99.90
21772;DHT22;11047;47.904;8.110;2023-04-06T09:14:13;10.00;99.90
21772;DHT22;11047;47.904;8.110;2023-04-06T09:16:41;9.60;99.90
21772;DHT22;11047;47.904;8.110;2023-04-06T09:19:09;9.50;99.90
21772;DHT22;11047;47.904;8.110;2023-04-06T09:21:37;9.50;99.90
21772;DHT22;11047;47.904;8.110;2023-04-06T09:24:07;9.60;99.90
21772;DHT22;11047;47.904;8.110;2023-04-06T09:26:44;10.10;99.90
21772;DHT22;11047;47.904;8.110;2023-04-06T09:29:22;10.00;99.90
21772;DHT22;11047;47.904;8.110;2023-04-06T09:31:49;9.60;99.90
21772;DHT22;11047;47.904;8.110;2023-04-06T09:34:21;9.60;99.90
21772;DHT22;11047;47.904;8.110;2023-04-06T09:36:49;9.80;99.90
21772;DHT22;11047;47.904;8.110;2023-04-06T09:39:20;10.00;99.90
21772;DHT22;11047;47.904;8.110;2023-04-06T09:41:50;10.00;99.90
21772;DHT22;11047;47.904;8.110;2023-04-06T09:44:18;9.70;99.90
21772;DHT22;11047;47.904;8.110;2023-04-06T09:46:45;9.90;99.90
21772;DHT22;11047;47.904;8.110;2023-04-06T09:49:13;10.40;99.90
21772;DHT22;11047;47.904;8.110;2023-04-06T09:51:42;10.50;99.90
21772;DHT22;11047;47.904;8.110;2023-04-06T09:54:16;10.80;99.90
21772;DHT22;11047;47.904;8.110;2023-04-06T09:56:46;10.60;99.90
21772;DHT22;11047;47.904;8.110;2023-04-06T09:59:18;10.30;99.90
21772;DHT22;11047;47.904;8.110;2023-04-06T10:01:49;10.70;99.90
21772;DHT22;11047;47.904;8.110;2023-04-06T10:04:25;10.50;99.90
21772;DHT22;11047;47.904;8.110;2023-04-06T10:06:54;10.20;99.90
21772;DHT22;11047;47.904;8.110;2023-04-06T10:09:26;10.10;99.90
21772;DHT22;11047;47.904;8.110;2023-04-06T10:11:55;10.10;99.90
21772;DHT22;11047;47.904;8.110;2023-04-06T10:14:22;10.10;99.90
21772;DHT22;11047;47.904;8.110;2023-04-06T10:16:49;10.00;99.90
21772;DHT22;11047;47.904;8.110;2023-04-06T10:19:26;10.40;99.90
21772;DHT22;11047;47.904;8.110;2023-04-06T10:21:55;10.60;99.90
21772;DHT22;11047;47.904;8.110;2023-04-06T10:24:25;10.70;99.90
21772;DHT22;11047;47.904;8.110;2023-04-06T10:27:02;10.60;99.90
21772;DHT22;11047;47.904;8.110;2023-04-06T10:29:42;10.60;99.90
21772;DHT22;11047;47.904;8.110;2023-04-06T10:32:10;10.90;99.90
21772;DHT22;11047;47.904;8.110;2023-04-06T10:34:37;10.60;99.90
21772;DHT22;11047;47.904;8.110;2023-04-06T10:37:14;10.50;99.90
21772;DHT22;11047;47.904;8.110;2023-04-06T10:39:52;10.50;99.90
21772;DHT22;11047;47.904;8.110;2023-04-06T10:42:24;10.40;99.90
21772;DHT22;11047;47.904;8.110;2023-04-06T10:44:51;10.60;99.90
21772;DHT22;11047;47.904;8.110;2023-04-06T10:47:18;10.70;99.90
21772;DHT22;11047;47.904;8.110;2023-04-06T10:49:45;10.30;99.90
21772;DHT22;11047;47.904;8.110;2023-04-06T10:52:12;10.10;99.90
21772;DHT22;11047;47.904;8.110;2023-04-06T10:54:41;10.40;99.90
21772;DHT22;11047;47.904;8.110;2023-04-06T10:57:12;10.40;99.90
21772;DHT22;11047;47.904;8.110;2023-04-06T10:59:42;10.40;99.90
21772;DHT22;11047;47.904;8.110;2023-04-06T11:02:19;10.10;99.90
21772;DHT22;11047;47.904;8.110;2023-04-06T11:04:54;10.40;99.90
21772;DHT22;11047;47.904;8.110;2023-04-06T11:07:23;10.60;99.90
21772;DHT22;11047;47.904;8.110;2023-04-06T11:09:51;11.00;99.90
21772;DHT22;11047;47.904;8.110;2023-04-06T11:12:23;11.00;99.90
21772;DHT22;11047;47.904;8.110;2023-04-06T11:14:55;11.00;99.90
21772;DHT22;11047;47.904;8.110;2023-04-06T11:17:26;11.00;99.90
21772;DHT22;11047;47.904;8.110;2023-04-06T11:19:53;11.10;99.90
21772;DHT22;11047;47.904;8.110;2023-04-06T11:22:20;11.30;99.90
21772;DHT22;11047;47.904;8.110;2023-04-06T11:24:47;11.10;99.90
21772;DHT22;11047;47.904;8.110;2023-04-06T11:27:15;11.30;99.90
21772;DHT22;11047;47.904;8.110;2023-04-06T11:29:44;11.50;99.90
21772;DHT22;11047;47.904;8.110;2023-04-06T11:32:20;11.60;99.90
21772;DHT22;11047;47.904;8.110;2023-04-06T11:34:48;11.70;99.90
21772;DHT22;11047;47.904;8.110;2023-04-06T11:37:15;11.20;99.90
21772;DHT22;11047;47.904;8.110;2023-04-06T11:39:47;11.40;99.90
21772;DHT22;11047;47.904;8.110;2023-04-06T11:42:21;11.00;99.90
21772;DHT22;11047;47.904;8.110;2023-04-06T11:44:51;11.00;99.90
21772;DHT22;11047;47.904;8.110;2023-04-06T11:47:19;11.40;99.90
21772;DHT22;11047;47.904;8.110;2023-04-06T11:49:47;11.10;99.90
21772;DHT22;11047;47.904;8.110;2023-04-06T11:52:15;10.90;99.90
21772;DHT22;11047;47.904;8.110;2023-04-06T11:54:43;10.80;99.90
21772;DHT22;11047;47.904;8.110;2023-04-06T11:57:10;11.00;99.90
21772;DHT22;11047;47.904;8.110;2023-04-06T11:59:36;11.20;99.90
21772;DHT22;11047;47.904;8.110;2023-04-06T12:02:05;11.40;99.90
21772;DHT22;11047;47.904;8.110;2023-04-06T12:04:32;11.70;99.90
21772;DHT22;11047;47.904;8.110;2023-04-06T12:07:00;11.30;99.90
21772;DHT22;11047;47.904;8.110;2023-04-06T12:09:27;11.50;99.90
21772;DHT22;11047;47.904;8.110;2023-04-06T12:11:53;11.40;99.90
21772;DHT22;11047;47.904;8.110;2023-04-06T12:14:21;11.40;99.90
21772;DHT22;11047;47.904;8.110;2023-04-06T12:16:48;11.40;99.90
21772;DHT22;11047;47.904;8.110;2023-04-06T12:19:16;11.60;99.90
21772;DHT22;11047;47.904;8.110;2023-04-06T12:21:43;11.40;99.90
21772;DHT22;11047;47.904;8.110;2023-04-06T12:24:10;11.30;99.90
21772;DHT22;11047;47.904;8.110;2023-04-06T12:26:37;11.20;99.90
21772;DHT22;11047;47.904;8.110;2023-04-06T12:29:04;10.90;99.90
21772;DHT22;11047;47.904;8.110;2023-04-06T12:31:34;11.00;99.90
21772;DHT22;11047;47.904;8.110;2023-04-06T12:34:03;11.20;99.90
21772;DHT22;11047;47.904;8.110;2023-04-06T12:36:31;11.30;99.90
21772;DHT22;11047;47.904;8.110;2023-04-06T12:38:59;11.20;99.90
21772;DHT22;11047;47.904;8.110;2023-04-06T12:41:26;11.00;99.90
21772;DHT22;11047;47.904;8.110;2023-04-06T12:43:52;10.90;99.90
21772;DHT22;11047;47.904;8.110;2023-04-06T12:46:20;10.90;99.90
21772;DHT22;11047;47.904;8.110;2023-04-06T12:48:46;10.60;99.90
21772;DHT22;11047;47.904;8.110;2023-04-06T12:51:13;10.90;99.90
21772;DHT22;11047;47.904;8.110;2023-04-06T12:53:42;10.90;99.90
21772;DHT22;11047;47.904;8.110;2023-04-06T12:56:13;10.50;99.90
21772;DHT22;11047;47.904;8.110;2023-04-06T12:58:41;10.50;99.90
21772;DHT22;11047;47.904;8.110;2023-04-06T13:01:08;10.60;99.90
21772;DHT22;11047;47.904;8.110;2023-04-06T13:03:35;10.40;99.90
21772;DHT22;11047;47.904;8.110;2023-04-06T13:06:02;10.40;99.90
21772;DHT22;11047;47.904;8.110;2023-04-06T13:08:29;10.70;99.90
21772;DHT22;11047;47.904;8.110;2023-04-06T13:10:57;10.60;99.90
21772;DHT22;11047;47.904;8.110;2023-04-06T13:13:25;10.50;99.90
21772;DHT22;11047;47.904;8.110;2023-04-06T13:15:53;10.20;99.90
21772;DHT22;11047;47.904;8.110;2023-04-06T13:18:21;10.20;99.90
21772;DHT22;11047;47.904;8.110;2023-04-06T13:20:48;10.20;99.90
21772;DHT22;11047;47.904;8.110;2023-04-06T13:23:15;10.10;99.90
21772;DHT22;11047;47.904;8.110;2023-04-06T13:25:42;10.10;99.90
21772;DHT22;11047;47.904;8.110;2023-04-06T13:28:10;10.30;99.90
21772;DHT22;11047;47.904;8.110;2023-04-06T13:30:37;10.30;99.90
21772;DHT22;11047;47.904;8.110;2023-04-06T13:33:05;10.30;99.90
21772;DHT22;11047;47.904;8.110;2023-04-06T13:35:32;10.10;99.90
21772;DHT22;11047;47.904;8.110;2023-04-06T13:37:58;10.10;99.90
21772;DHT22;11047;47.904;8.110;2023-04-06T13:40:25;10.10;99.90
21772;DHT22;11047;47.904;8.110;2023-04-06T13:42:52;9.90;99.90
21772;DHT22;11047;47.904;8.110;2023-04-06T13:45:20;9.90;99.90
21772;DHT22;11047;47.904;8.110;2023-04-06T13:47:47;10.00;99.90
21772;DHT22;11047;47.904;8.110;2023-04-06T13:50:14;10.00;99.90
21772;DHT22;11047;47.904;8.110;2023-04-06T13:52:41;9.90;99.90
21772;DHT22;11047;47.904;8.110;2023-04-06T13:55:08;9.80;99.90
21772;DHT22;11047;47.904;8.110;2023-04-06T13:57:35;10.10;99.90
21772;DHT22;11047;47.904;8.110;2023-04-06T14:00:04;10.20;99.90
21772;DHT22;11047;47.904;8.110;2023-04-06T14:02:33;10.30;99.90
21772;DHT22;11047;47.904;8.110;2023-04-06T14:05:00;10.30;99.90
21772;DHT22;11047;47.904;8.110;2023-04-06T14:07:27;10.40;99.90
21772;DHT22;11047;47.904;8.110;2023-04-06T14:09:53;10.20;99.90
21772;DHT22;11047;47.904;8.110;2023-04-06T14:12:20;10.20;99.90
21772;DHT22;11047;47.904;8.110;2023-04-06T14:14:47;10.10;99.90
21772;DHT22;11047;47.904;8.110;2023-04-06T14:17:14;10.00;99.90
21772;DHT22;11047;47.904;8.110;2023-04-06T14:19:42;10.10;99.90
21772;DHT22;11047;47.904;8.110;2023-04-06T14:22:09;9.90;99.90
21772;DHT22;11047;47.904;8.110;2023-04-06T14:24:36;9.80;99.90
21772;DHT22;11047;47.904;8.110;2023-04-06T14:27:03;9.70;99.90
21772;DHT22;11047;47.904;8.110;2023-04-06T14:29:30;9.70;99.90
21772;DHT22;11047;47.904;8.110;2023-04-06T14:31:57;9.70;99.90
21772;DHT22;11047;47.904;8.110;2023-04-06T14:34:25;9.60;99.90
21772;DHT22;11047;47.904;8.110;2023-04-06T14:36:53;9.80;99.90
21772;DHT22;11047;47.904;8.110;2023-04-06T14:39:20;9.90;99.90
21772;DHT22;11047;47.904;8.110;2023-04-06T14:41:47;9.90;99.90
21772;DHT22;11047;47.904;8.110;2023-04-06T14:44:14;10.00;99.90
21772;DHT22;11047;47.904;8.110;2023-04-06T14:46:42;9.80;99.90
21772;DHT22;11047;47.904;8.110;2023-04-06T14:49:08;9.80;99.90
21772;DHT22;11047;47.904;8.110;2023-04-06T14:51:36;9.90;99.90
21772;DHT22;11047;47.904;8.110;2023-04-06T14:54:04;9.80;99.90
21772;DHT22;11047;47.904;8.110;2023-04-06T14:56:31;9.70;99.90
21772;DHT22;11047;47.904;8.110;2023-04-06T14:58:58;9.70;99.90
21772;DHT22;11047;47.904;8.110;2023-04-06T15:01:27;9.50;99.90
21772;DHT22;11047;47.904;8.110;2023-04-06T15:03:53;9.60;99.90
21772;DHT22;11047;47.904;8.110;2023-04-06T15:06:20;9.50;99.90
21772;DHT22;11047;47.904;8.110;2023-04-06T15:08:48;9.50;99.90
21772;DHT22;11047;47.904;8.110;2023-04-06T15:11:16;9.50;99.90
21772;DHT22;11047;47.904;8.110;2023-04-06T15:13:43;9.40;99.90
21772;DHT22;11047;47.904;8.110;2023-04-06T15:16:10;9.40;99.90
21772;DHT22;11047;47.904;8.110;2023-04-06T15:18:36;9.40;99.90
21772;DHT22;11047;47.904;8.110;2023-04-06T15:21:03;9.30;99.90
21772;DHT22;11047;47.904;8.110;2023-04-06T15:23:30;9.20;99.90
21772;DHT22;11047;47.904;8.110;2023-04-06T15:25:59;9.00;99.90
21772;DHT22;11047;47.904;8.110;2023-04-06T15:28:28;9.20;99.90
21772;DHT22;11047;47.904;8.110;2023-04-06T15:30:55;9.20;99.90
21772;DHT22;11047;47.904;8.110;2023-04-06T15:33:23;9.20;99.90
21772;DHT22;11047;47.904;8.110;2023-04-06T15:35:50;9.00;99.90
21772;DHT22;11047;47.904;8.110;2023-04-06T15:38:17;9.00;99.90